Terminal Aerodrome Forecast
Issued by NWS

Home | Current Version | Previous Version | Text Only | Print | Product List | Glossary On
Versions: 1 2 3 4 5 6 7 8 9 10 11 12 13 14 15 16 17
000
FTUS43 KIND 052320
TAFLAF
TAF
KLAF 052320Z 0600/0624 35012KT P6SM SKC
     FM060300 35007KT P6SM SKC
     FM060800 33004KT P6SM SKC
     FM061600 30006KT P6SM SKC
     FM062200 26005KT P6SM SCT100
      AMD LTD TO CLD WIND AND VIS 0601/0613=

USA.gov is the U.S. government's official web portal to all federal, state and local government web resources and services.